sensor_id;sensor_type;location;lat;lon;timestamp;temperature;humidity
21123;DHT22;10719;48.130;11.630;2023-02-18T00:01:53;11.20;99.90
21123;DHT22;10719;48.130;11.630;2023-02-18T00:04:19;11.20;99.90
21123;DHT22;10719;48.130;11.630;2023-02-18T00:06:45;11.20;99.90
21123;DHT22;10719;48.130;11.630;2023-02-18T00:09:11;11.20;99.90
21123;DHT22;10719;48.130;11.630;2023-02-18T00:11:37;11.10;99.90
21123;DHT22;10719;48.130;11.630;2023-02-18T00:14:07;11.10;99.90
21123;DHT22;10719;48.130;11.630;2023-02-18T00:16:32;11.10;99.90
21123;DHT22;10719;48.130;11.630;2023-02-18T00:19:01;11.20;99.90
21123;DHT22;10719;48.130;11.630;2023-02-18T00:21:26;11.10;99.90
21123;DHT22;10719;48.130;11.630;2023-02-18T00:23:52;11.20;99.90
21123;DHT22;10719;48.130;11.630;2023-02-18T00:26:19;11.10;99.90
21123;DHT22;10719;48.130;11.630;2023-02-18T00:28:45;11.10;99.90
21123;DHT22;10719;48.130;11.630;2023-02-18T00:31:15;11.10;99.90
21123;DHT22;10719;48.130;11.630;2023-02-18T00:33:41;11.10;99.90
21123;DHT22;10719;48.130;11.630;2023-02-18T00:36:16;11.00;99.90
21123;DHT22;10719;48.130;11.630;2023-02-18T00:38:46;11.00;99.90
21123;DHT22;10719;48.130;11.630;2023-02-18T00:41:12;11.00;99.90
21123;DHT22;10719;48.130;11.630;2023-02-18T00:43:37;11.00;99.90
21123;DHT22;10719;48.130;11.630;2023-02-18T00:46:03;10.90;99.90
21123;DHT22;10719;48.130;11.630;2023-02-18T00:48:29;10.90;99.90
21123;DHT22;10719;48.130;11.630;2023-02-18T00:50:54;10.90;99.90
21123;DHT22;10719;48.130;11.630;2023-02-18T00:53:20;10.90;99.90
21123;DHT22;10719;48.130;11.630;2023-02-18T00:55:47;10.80;99.90
21123;DHT22;10719;48.130;11.630;2023-02-18T00:58:13;10.80;99.90
21123;DHT22;10719;48.130;11.630;2023-02-18T01:00:39;10.80;99.90
21123;DHT22;10719;48.130;11.630;2023-02-18T01:03:06;10.80;99.90
21123;DHT22;10719;48.130;11.630;2023-02-18T01:05:35;10.90;99.90
21123;DHT22;10719;48.130;11.630;2023-02-18T01:08:01;10.80;99.90
21123;DHT22;10719;48.130;11.630;2023-02-18T01:10:27;10.70;99.90
21123;DHT22;10719;48.130;11.630;2023-02-18T01:12:53;10.70;99.90
21123;DHT22;10719;48.130;11.630;2023-02-18T01:15:19;10.70;99.90
21123;DHT22;10719;48.130;11.630;2023-02-18T01:17:45;10.70;99.90
21123;DHT22;10719;48.130;11.630;2023-02-18T01:20:12;10.70;99.90
21123;DHT22;10719;48.130;11.630;2023-02-18T01:22:37;10.70;99.90
21123;DHT22;10719;48.130;11.630;2023-02-18T01:25:03;10.70;99.90
21123;DHT22;10719;48.130;11.630;2023-02-18T01:27:29;10.60;99.90
21123;DHT22;10719;48.130;11.630;2023-02-18T01:29:55;10.60;99.90
21123;DHT22;10719;48.130;11.630;2023-02-18T01:32:20;10.60;99.90
21123;DHT22;10719;48.130;11.630;2023-02-18T01:34:46;10.60;99.90
21123;DHT22;10719;48.130;11.630;2023-02-18T01:37:12;10.60;99.90
21123;DHT22;10719;48.130;11.630;2023-02-18T01:39:38;10.50;99.90
21123;DHT22;10719;48.130;11.630;2023-02-18T01:42:03;10.50;99.90
21123;DHT22;10719;48.130;11.630;2023-02-18T01:44:32;10.50;99.90
21123;DHT22;10719;48.130;11.630;2023-02-18T01:46:57;10.60;99.90
21123;DHT22;10719;48.130;11.630;2023-02-18T01:49:26;10.50;99.90
21123;DHT22;10719;48.130;11.630;2023-02-18T01:52:02;10.50;99.90
21123;DHT22;10719;48.130;11.630;2023-02-18T01:54:38;10.50;99.90
21123;DHT22;10719;48.130;11.630;2023-02-18T01:57:09;10.60;99.90
21123;DHT22;10719;48.130;11.630;2023-02-18T01:59:53;10.60;99.90
21123;DHT22;10719;48.130;11.630;2023-02-18T02:02:22;10.60;99.90
21123;DHT22;10719;48.130;11.630;2023-02-18T02:04:48;10.70;99.90
21123;DHT22;10719;48.130;11.630;2023-02-18T02:07:15;10.70;99.90
21123;DHT22;10719;48.130;11.630;2023-02-18T02:09:43;10.70;99.90
21123;DHT22;10719;48.130;11.630;2023-02-18T02:14:53;10.70;99.90
21123;DHT22;10719;48.130;11.630;2023-02-18T02:18:10;10.70;99.90
21123;DHT22;10719;48.130;11.630;2023-02-18T02:31:15;10.90;99.90
21123;DHT22;10719;48.130;11.630;2023-02-18T02:36:55;11.00;99.90
21123;DHT22;10719;48.130;11.630;2023-02-18T02:45:56;11.10;99.90
21123;DHT22;10719;48.130;11.630;2023-02-18T02:48:43;11.00;99.90
21123;DHT22;10719;48.130;11.630;2023-02-18T02:51:24;11.00;99.90
21123;DHT22;10719;48.130;11.630;2023-02-18T02:53:52;11.00;99.90
21123;DHT22;10719;48.130;11.630;2023-02-18T02:56:23;11.00;99.90
21123;DHT22;10719;48.130;11.630;2023-02-18T02:59:02;11.00;99.90
21123;DHT22;10719;48.130;11.630;2023-02-18T03:01:49;11.00;99.90
21123;DHT22;10719;48.130;11.630;2023-02-18T03:07:26;10.90;99.90
21123;DHT22;10719;48.130;11.630;2023-02-18T03:10:29;10.90;99.90
21123;DHT22;10719;48.130;11.630;2023-02-18T03:13:17;11.00;99.90
21123;DHT22;10719;48.130;11.630;2023-02-18T03:16:00;11.00;99.90
21123;DHT22;10719;48.130;11.630;2023-02-18T03:18:41;10.90;99.90
21123;DHT22;10719;48.130;11.630;2023-02-18T03:21:26;11.00;99.90
21123;DHT22;10719;48.130;11.630;2023-02-18T03:24:29;11.00;99.90
21123;DHT22;10719;48.130;11.630;2023-02-18T03:27:15;11.00;99.90
21123;DHT22;10719;48.130;11.630;2023-02-18T03:29:44;11.00;99.90
21123;DHT22;10719;48.130;11.630;2023-02-18T03:32:14;11.00;99.90
21123;DHT22;10719;48.130;11.630;2023-02-18T03:34:44;11.00;99.90
21123;DHT22;10719;48.130;11.630;2023-02-18T03:37:12;11.00;99.90
21123;DHT22;10719;48.130;11.630;2023-02-18T03:39:43;11.00;99.90
21123;DHT22;10719;48.130;11.630;2023-02-18T03:42:10;11.00;99.90
21123;DHT22;10719;48.130;11.630;2023-02-18T03:44:36;11.00;99.90
21123;DHT22;10719;48.130;11.630;2023-02-18T03:47:01;11.00;99.90
21123;DHT22;10719;48.130;11.630;2023-02-18T03:49:27;11.00;99.90
21123;DHT22;10719;48.130;11.630;2023-02-18T03:51:53;10.90;99.90
21123;DHT22;10719;48.130;11.630;2023-02-18T03:54:19;11.00;99.90
21123;DHT22;10719;48.130;11.630;2023-02-18T03:56:45;11.00;99.90
21123;DHT22;10719;48.130;11.630;2023-02-18T03:59:11;11.00;99.90
21123;DHT22;10719;48.130;11.630;2023-02-18T04:01:36;11.00;99.90
21123;DHT22;10719;48.130;11.630;2023-02-18T04:04:02;10.90;99.90
21123;DHT22;10719;48.130;11.630;2023-02-18T04:06:28;10.90;99.90
21123;DHT22;10719;48.130;11.630;2023-02-18T04:08:54;10.90;99.90
21123;DHT22;10719;48.130;11.630;2023-02-18T04:11:19;10.90;99.90
21123;DHT22;10719;48.130;11.630;2023-02-18T04:13:45;10.90;99.90
21123;DHT22;10719;48.130;11.630;2023-02-18T04:16:11;10.90;99.90
21123;DHT22;10719;48.130;11.630;2023-02-18T04:18:37;10.90;99.90
21123;DHT22;10719;48.130;11.630;2023-02-18T04:21:02;10.90;99.90
21123;DHT22;10719;48.130;11.630;2023-02-18T04:23:28;10.90;99.90
21123;DHT22;10719;48.130;11.630;2023-02-18T04:25:54;10.90;99.90
21123;DHT22;10719;48.130;11.630;2023-02-18T04:28:19;10.90;99.90
21123;DHT22;10719;48.130;11.630;2023-02-18T04:30:46;10.90;99.90
21123;DHT22;10719;48.130;11.630;2023-02-18T04:33:12;10.90;99.90
21123;DHT22;10719;48.130;11.630;2023-02-18T04:35:38;10.80;99.90
21123;DHT22;10719;48.130;11.630;2023-02-18T04:38:07;10.80;99.90
21123;DHT22;10719;48.130;11.630;2023-02-18T04:40:33;10.80;99.90
21123;DHT22;10719;48.130;11.630;2023-02-18T04:42:59;10.80;99.90
21123;DHT22;10719;48.130;11.630;2023-02-18T04:45:26;10.80;99.90
21123;DHT22;10719;48.130;11.630;2023-02-18T04:47:52;10.80;99.90
21123;DHT22;10719;48.130;11.630;2023-02-18T04:50:19;10.70;99.90
21123;DHT22;10719;48.130;11.630;2023-02-18T04:52:45;10.70;99.90
21123;DHT22;10719;48.130;11.630;2023-02-18T04:55:10;10.70;99.90
21123;DHT22;10719;48.130;11.630;2023-02-18T04:57:36;10.70;99.90
21123;DHT22;10719;48.130;11.630;2023-02-18T05:00:03;10.70;99.90
21123;DHT22;10719;48.130;11.630;2023-02-18T05:02:31;10.70;99.90
21123;DHT22;10719;48.130;11.630;2023-02-18T05:04:57;10.70;99.90
21123;DHT22;10719;48.130;11.630;2023-02-18T05:07:22;10.70;99.90
21123;DHT22;10719;48.130;11.630;2023-02-18T05:09:48;10.70;99.90
21123;DHT22;10719;48.130;11.630;2023-02-18T05:12:13;10.70;99.90
21123;DHT22;10719;48.130;11.630;2023-02-18T05:14:39;10.70;99.90
21123;DHT22;10719;48.130;11.630;2023-02-18T05:17:05;10.60;99.90
21123;DHT22;10719;48.130;11.630;2023-02-18T05:19:30;10.70;99.90
21123;DHT22;10719;48.130;11.630;2023-02-18T05:21:56;10.70;99.90
21123;DHT22;10719;48.130;11.630;2023-02-18T05:24:22;10.60;99.90
21123;DHT22;10719;48.130;11.630;2023-02-18T05:26:47;10.70;99.90
21123;DHT22;10719;48.130;11.630;2023-02-18T05:29:13;10.60;99.90
21123;DHT22;10719;48.130;11.630;2023-02-18T05:31:39;10.70;99.90
21123;DHT22;10719;48.130;11.630;2023-02-18T05:34:04;10.70;99.90
21123;DHT22;10719;48.130;11.630;2023-02-18T05:36:30;10.70;99.90
21123;DHT22;10719;48.130;11.630;2023-02-18T05:38:56;10.70;99.90
21123;DHT22;10719;48.130;11.630;2023-02-18T05:41:21;10.70;99.90
21123;DHT22;10719;48.130;11.630;2023-02-18T05:43:47;10.70;99.90
21123;DHT22;10719;48.130;11.630;2023-02-18T05:46:31;10.70;99.90
21123;DHT22;10719;48.130;11.630;2023-02-18T05:48:57;10.70;99.90
21123;DHT22;10719;48.130;11.630;2023-02-18T05:51:22;10.70;99.90
21123;DHT22;10719;48.130;11.630;2023-02-18T05:53:48;10.80;99.90
21123;DHT22;10719;48.130;11.630;2023-02-18T05:56:14;10.70;99.90
21123;DHT22;10719;48.130;11.630;2023-02-18T05:58:39;10.70;99.90
21123;DHT22;10719;48.130;11.630;2023-02-18T06:01:05;10.70;99.90
21123;DHT22;10719;48.130;11.630;2023-02-18T06:03:30;10.80;99.90
21123;DHT22;10719;48.130;11.630;2023-02-18T06:05:56;10.80;99.90
21123;DHT22;10719;48.130;11.630;2023-02-18T06:08:21;10.80;99.90
21123;DHT22;10719;48.130;11.630;2023-02-18T06:10:47;10.80;99.90
21123;DHT22;10719;48.130;11.630;2023-02-18T06:13:13;10.80;99.90
21123;DHT22;10719;48.130;11.630;2023-02-18T06:15:38;10.80;99.90
21123;DHT22;10719;48.130;11.630;2023-02-18T06:18:05;10.80;99.90
21123;DHT22;10719;48.130;11.630;2023-02-18T06:20:31;10.80;99.90
21123;DHT22;10719;48.130;11.630;2023-02-18T06:22:57;10.80;99.90
21123;DHT22;10719;48.130;11.630;2023-02-18T06:25:23;10.80;99.90
21123;DHT22;10719;48.130;11.630;2023-02-18T06:27:48;10.80;99.90
21123;DHT22;10719;48.130;11.630;2023-02-18T06:30:14;10.80;99.90
21123;DHT22;10719;48.130;11.630;2023-02-18T06:32:40;10.80;99.90
21123;DHT22;10719;48.130;11.630;2023-02-18T06:35:06;10.90;99.90
21123;DHT22;10719;48.130;11.630;2023-02-18T06:37:32;10.90;99.90
21123;DHT22;10719;48.130;11.630;2023-02-18T06:39:57;10.90;99.90
21123;DHT22;10719;48.130;11.630;2023-02-18T06:42:23;10.90;99.90
21123;DHT22;10719;48.130;11.630;2023-02-18T06:44:48;10.90;99.90
21123;DHT22;10719;48.130;11.630;2023-02-18T06:47:14;10.80;99.90
21123;DHT22;10719;48.130;11.630;2023-02-18T06:49:39;10.90;99.90
21123;DHT22;10719;48.130;11.630;2023-02-18T06:52:05;10.90;99.90
21123;DHT22;10719;48.130;11.630;2023-02-18T06:54:32;10.90;99.90
21123;DHT22;10719;48.130;11.630;2023-02-18T06:56:58;10.90;99.90
21123;DHT22;10719;48.130;11.630;2023-02-18T06:59:23;10.90;99.90
21123;DHT22;10719;48.130;11.630;2023-02-18T07:01:49;10.90;99.90
21123;DHT22;10719;48.130;11.630;2023-02-18T07:04:14;10.90;99.90
21123;DHT22;10719;48.130;11.630;2023-02-18T07:06:40;10.90;99.90
21123;DHT22;10719;48.130;11.630;2023-02-18T07:09:06;10.90;99.90
21123;DHT22;10719;48.130;11.630;2023-02-18T07:11:32;11.00;99.90
21123;DHT22;10719;48.130;11.630;2023-02-18T07:13:57;11.00;99.90
21123;DHT22;10719;48.130;11.630;2023-02-18T07:16:23;11.10;99.90
21123;DHT22;10719;48.130;11.630;2023-02-18T07:18:49;11.00;99.90
21123;DHT22;10719;48.130;11.630;2023-02-18T07:21:14;11.10;99.90
21123;DHT22;10719;48.130;11.630;2023-02-18T07:23:40;11.10;99.90
21123;DHT22;10719;48.130;11.630;2023-02-18T07:26:11;11.10;99.90
21123;DHT22;10719;48.130;11.630;2023-02-18T07:28:37;11.10;99.90
21123;DHT22;10719;48.130;11.630;2023-02-18T07:31:03;11.10;99.90
21123;DHT22;10719;48.130;11.630;2023-02-18T07:33:29;11.10;99.90
21123;DHT22;10719;48.130;11.630;2023-02-18T07:35:57;11.20;99.90
21123;DHT22;10719;48.130;11.630;2023-02-18T07:38:24;11.20;99.90
21123;DHT22;10719;48.130;11.630;2023-02-18T07:40:51;11.20;99.90
21123;DHT22;10719;48.130;11.630;2023-02-18T07:43:16;11.20;99.90
21123;DHT22;10719;48.130;11.630;2023-02-18T07:45:42;11.20;99.90
21123;DHT22;10719;48.130;11.630;2023-02-18T07:48:08;11.20;99.90
21123;DHT22;10719;48.130;11.630;2023-02-18T07:50:34;11.20;99.90
21123;DHT22;10719;48.130;11.630;2023-02-18T07:53:03;11.20;99.90
21123;DHT22;10719;48.130;11.630;2023-02-18T07:55:29;11.20;99.90
21123;DHT22;10719;48.130;11.630;2023-02-18T07:58:24;11.20;99.90
21123;DHT22;10719;48.130;11.630;2023-02-18T08:00:51;11.20;99.90
21123;DHT22;10719;48.130;11.630;2023-02-18T08:03:23;11.20;99.90
21123;DHT22;10719;48.130;11.630;2023-02-18T08:05:50;11.30;99.90
21123;DHT22;10719;48.130;11.630;2023-02-18T08:08:19;11.20;99.90
21123;DHT22;10719;48.130;11.630;2023-02-18T08:10:45;11.20;99.90
21123;DHT22;10719;48.130;11.630;2023-02-18T08:13:11;11.20;99.90
21123;DHT22;10719;48.130;11.630;2023-02-18T08:15:37;11.20;99.90
21123;DHT22;10719;48.130;11.630;2023-02-18T08:18:03;11.20;99.90
21123;DHT22;10719;48.130;11.630;2023-02-18T08:20:29;11.20;99.90
21123;DHT22;10719;48.130;11.630;2023-02-18T08:22:54;11.20;99.90
21123;DHT22;10719;48.130;11.630;2023-02-18T08:25:20;11.20;99.90
21123;DHT22;10719;48.130;11.630;2023-02-18T08:27:45;11.30;99.90
21123;DHT22;10719;48.130;11.630;2023-02-18T08:30:11;11.30;99.90
21123;DHT22;10719;48.130;11.630;2023-02-18T08:32:37;11.30;99.90
21123;DHT22;10719;48.130;11.630;2023-02-18T08:35:03;11.30;99.90
21123;DHT22;10719;48.130;11.630;2023-02-18T08:37:29;11.30;99.90
21123;DHT22;10719;48.130;11.630;2023-02-18T08:39:55;11.30;99.90
21123;DHT22;10719;48.130;11.630;2023-02-18T08:42:20;11.20;99.90
21123;DHT22;10719;48.130;11.630;2023-02-18T08:44:46;11.20;99.90
21123;DHT22;10719;48.130;11.630;2023-02-18T08:47:12;11.30;99.90
21123;DHT22;10719;48.130;11.630;2023-02-18T08:49:37;11.30;99.90
21123;DHT22;10719;48.130;11.630;2023-02-18T08:52:04;11.30;99.90
21123;DHT22;10719;48.130;11.630;2023-02-18T08:54:30;11.40;99.90
21123;DHT22;10719;48.130;11.630;2023-02-18T08:56:56;11.50;99.90
21123;DHT22;10719;48.130;11.630;2023-02-18T08:59:25;11.70;99.90
21123;DHT22;10719;48.130;11.630;2023-02-18T09:01:51;11.80;99.90
21123;DHT22;10719;48.130;11.630;2023-02-18T09:04:16;11.80;99.90
21123;DHT22;10719;48.130;11.630;2023-02-18T09:06:42;11.90;99.90
21123;DHT22;10719;48.130;11.630;2023-02-18T09:09:08;11.80;99.90
21123;DHT22;10719;48.130;11.630;2023-02-18T09:11:34;11.70;99.90
21123;DHT22;10719;48.130;11.630;2023-02-18T09:14:00;11.80;99.90
21123;DHT22;10719;48.130;11.630;2023-02-18T09:16:27;11.80;99.90
21123;DHT22;10719;48.130;11.630;2023-02-18T09:18:55;12.00;99.90
21123;DHT22;10719;48.130;11.630;2023-02-18T09:21:21;12.10;99.90
21123;DHT22;10719;48.130;11.630;2023-02-18T09:23:48;12.10;99.90
21123;DHT22;10719;48.130;11.630;2023-02-18T09:26:16;12.10;99.90
21123;DHT22;10719;48.130;11.630;2023-02-18T09:28:42;12.00;99.90
21123;DHT22;10719;48.130;11.630;2023-02-18T09:31:10;12.20;99.90
21123;DHT22;10719;48.130;11.630;2023-02-18T09:33:39;12.20;99.90
21123;DHT22;10719;48.130;11.630;2023-02-18T09:36:06;12.20;99.90
21123;DHT22;10719;48.130;11.630;2023-02-18T09:38:32;12.10;99.90
21123;DHT22;10719;48.130;11.630;2023-02-18T09:40:59;12.10;99.90
21123;DHT22;10719;48.130;11.630;2023-02-18T09:43:39;12.20;99.90
21123;DHT22;10719;48.130;11.630;2023-02-18T09:46:18;12.30;99.90
21123;DHT22;10719;48.130;11.630;2023-02-18T09:48:46;12.40;99.90
21123;DHT22;10719;48.130;11.630;2023-02-18T09:51:15;12.40;99.90
21123;DHT22;10719;48.130;11.630;2023-02-18T09:53:43;12.60;99.90
21123;DHT22;10719;48.130;11.630;2023-02-18T09:56:15;12.80;99.90
21123;DHT22;10719;48.130;11.630;2023-02-18T09:58:42;12.70;99.90
21123;DHT22;10719;48.130;11.630;2023-02-18T10:01:30;12.50;99.90
21123;DHT22;10719;48.130;11.630;2023-02-18T10:04:03;12.60;99.90
21123;DHT22;10719;48.130;11.630;2023-02-18T10:06:32;12.80;99.90
21123;DHT22;10719;48.130;11.630;2023-02-18T10:09:02;12.70;99.90
21123;DHT22;10719;48.130;11.630;2023-02-18T10:11:41;12.80;99.90
21123;DHT22;10719;48.130;11.630;2023-02-18T10:14:12;13.00;99.90
21123;DHT22;10719;48.130;11.630;2023-02-18T10:16:37;13.50;99.90
21123;DHT22;10719;48.130;11.630;2023-02-18T10:19:48;14.50;99.90
21123;DHT22;10719;48.130;11.630;2023-02-18T10:21:55;14.90;99.90
21123;DHT22;10719;48.130;11.630;2023-02-18T10:24:33;14.80;99.90
21123;DHT22;10719;48.130;11.630;2023-02-18T10:27:00;14.50;99.90
21123;DHT22;10719;48.130;11.630;2023-02-18T10:29:27;14.20;99.90
21123;DHT22;10719;48.130;11.630;2023-02-18T10:34:47;14.90;99.90
21123;DHT22;10719;48.130;11.630;2023-02-18T10:37:36;16.20;99.90
21123;DHT22;10719;48.130;11.630;2023-02-18T10:43:20;16.70;99.90
21123;DHT22;10719;48.130;11.630;2023-02-18T10:46:04;16.20;99.90
21123;DHT22;10719;48.130;11.630;2023-02-18T10:51:34;15.60;99.90
21123;DHT22;10719;48.130;11.630;2023-02-18T10:54:01;15.10;99.90
21123;DHT22;10719;48.130;11.630;2023-02-18T10:56:34;15.30;99.90
21123;DHT22;10719;48.130;11.630;2023-02-18T11:01:44;15.50;99.90
21123;DHT22;10719;48.130;11.630;2023-02-18T11:04:20;15.40;99.90
21123;DHT22;10719;48.130;11.630;2023-02-18T11:06:50;16.00;99.90
21123;DHT22;10719;48.130;11.630;2023-02-18T11:09:33;16.60;99.90
21123;DHT22;10719;48.130;11.630;2023-02-18T11:12:14;16.60;99.90
21123;DHT22;10719;48.130;11.630;2023-02-18T11:14:47;16.60;99.90
21123;DHT22;10719;48.130;11.630;2023-02-18T11:17:33;18.20;99.90
21123;DHT22;10719;48.130;11.630;2023-02-18T11:20:23;18.70;99.90
21123;DHT22;10719;48.130;11.630;2023-02-18T11:22:49;18.20;99.90
21123;DHT22;10719;48.130;11.630;2023-02-18T11:25:24;17.80;99.90
21123;DHT22;10719;48.130;11.630;2023-02-18T11:27:53;17.60;99.90
21123;DHT22;10719;48.130;11.630;2023-02-18T11:30:29;17.30;99.90
21123;DHT22;10719;48.130;11.630;2023-02-18T11:32:58;17.50;99.90
21123;DHT22;10719;48.130;11.630;2023-02-18T11:35:29;17.50;99.90
21123;DHT22;10719;48.130;11.630;2023-02-18T11:37:57;17.50;99.90
21123;DHT22;10719;48.130;11.630;2023-02-18T11:40:32;17.30;99.90
21123;DHT22;10719;48.130;11.630;2023-02-18T11:43:18;17.00;99.90
21123;DHT22;10719;48.130;11.630;2023-02-18T11:45:44;17.30;99.90
21123;DHT22;10719;48.130;11.630;2023-02-18T11:48:21;17.60;99.90
21123;DHT22;10719;48.130;11.630;2023-02-18T11:50:52;17.20;99.90
21123;DHT22;10719;48.130;11.630;2023-02-18T11:53:28;17.00;99.90
21123;DHT22;10719;48.130;11.630;2023-02-18T11:55:57;17.10;99.90
21123;DHT22;10719;48.130;11.630;2023-02-18T11:58:23;16.70;99.90
21123;DHT22;10719;48.130;11.630;2023-02-18T12:00:50;16.50;99.90
21123;DHT22;10719;48.130;11.630;2023-02-18T12:03:37;16.30;99.90
21123;DHT22;10719;48.130;11.630;2023-02-18T12:06:10;16.80;99.90
21123;DHT22;10719;48.130;11.630;2023-02-18T12:08:57;16.80;99.90
21123;DHT22;10719;48.130;11.630;2023-02-18T12:11:32;16.40;99.90
21123;DHT22;10719;48.130;11.630;2023-02-18T12:13:59;16.40;99.90
21123;DHT22;10719;48.130;11.630;2023-02-18T12:16:45;16.20;99.90
21123;DHT22;10719;48.130;11.630;2023-02-18T12:22:15;16.40;99.90
21123;DHT22;10719;48.130;11.630;2023-02-18T12:27:47;16.40;99.90
21123;DHT22;10719;48.130;11.630;2023-02-18T12:30:33;16.80;99.90
21123;DHT22;10719;48.130;11.630;2023-02-18T12:46:39;15.60;99.90
21123;DHT22;10719;48.130;11.630;2023-02-18T12:57:25;15.70;99.90
21123;DHT22;10719;48.130;11.630;2023-02-18T13:00:21;15.90;99.90
21123;DHT22;10719;48.130;11.630;2023-02-18T13:03:22;16.90;99.90
21123;DHT22;10719;48.130;11.630;2023-02-18T13:06:21;17.40;99.90
21123;DHT22;10719;48.130;11.630;2023-02-18T13:14:10;17.90;99.90
21123;DHT22;10719;48.130;11.630;2023-02-18T13:16:38;19.10;99.90
21123;DHT22;10719;48.130;11.630;2023-02-18T13:21:48;20.30;99.90
21123;DHT22;10719;48.130;11.630;2023-02-18T13:24:36;21.10;99.90
21123;DHT22;10719;48.130;11.630;2023-02-18T13:27:13;20.00;99.90
21123;DHT22;10719;48.130;11.630;2023-02-18T13:29:52;18.70;99.90
21123;DHT22;10719;48.130;11.630;2023-02-18T13:40:27;17.50;99.90
21123;DHT22;10719;48.130;11.630;2023-02-18T13:43:15;17.20;99.90
21123;DHT22;10719;48.130;11.630;2023-02-18T13:45:40;17.10;99.90
21123;DHT22;10719;48.130;11.630;2023-02-18T13:48:22;17.00;99.90
21123;DHT22;10719;48.130;11.630;2023-02-18T13:50:52;16.40;99.90
21123;DHT22;10719;48.130;11.630;2023-02-18T13:53:22;15.90;99.90
21123;DHT22;10719;48.130;11.630;2023-02-18T13:56:02;15.20;99.90
21123;DHT22;10719;48.130;11.630;2023-02-18T13:58:33;14.80;99.90
21123;DHT22;10719;48.130;11.630;2023-02-18T14:01:47;14.90;99.90
21123;DHT22;10719;48.130;11.630;2023-02-18T14:03:51;14.80;99.90
21123;DHT22;10719;48.130;11.630;2023-02-18T14:06:39;14.50;99.90
21123;DHT22;10719;48.130;11.630;2023-02-18T14:11:55;14.40;99.90
21123;DHT22;10719;48.130;11.630;2023-02-18T14:17:13;14.20;99.90
21123;DHT22;10719;48.130;11.630;2023-02-18T14:19:38;14.20;99.90
21123;DHT22;10719;48.130;11.630;2023-02-18T14:27:32;13.90;99.90
21123;DHT22;10719;48.130;11.630;2023-02-18T14:30:04;13.80;99.90
21123;DHT22;10719;48.130;11.630;2023-02-18T14:32:32;13.70;99.90
21123;DHT22;10719;48.130;11.630;2023-02-18T14:40:24;13.70;99.90
21123;DHT22;10719;48.130;11.630;2023-02-18T14:45:35;13.60;99.90
21123;DHT22;10719;48.130;11.630;2023-02-18T14:50:49;13.70;99.90
21123;DHT22;10719;48.130;11.630;2023-02-18T14:53:19;13.60;99.90
21123;DHT22;10719;48.130;11.630;2023-02-18T14:55:56;13.70;99.90
21123;DHT22;10719;48.130;11.630;2023-02-18T14:58:28;13.70;99.90
21123;DHT22;10719;48.130;11.630;2023-02-18T15:00:54;13.60;99.90
21123;DHT22;10719;48.130;11.630;2023-02-18T15:03:20;13.60;99.90
21123;DHT22;10719;48.130;11.630;2023-02-18T15:05:50;13.50;99.90
21123;DHT22;10719;48.130;11.630;2023-02-18T15:08:21;13.50;99.90
21123;DHT22;10719;48.130;11.630;2023-02-18T15:10:57;13.60;99.90
21123;DHT22;10719;48.130;11.630;2023-02-18T15:15:55;13.40;99.90
21123;DHT22;10719;48.130;11.630;2023-02-18T15:20:58;13.30;99.90
21123;DHT22;10719;48.130;11.630;2023-02-18T15:23:24;13.30;99.90
21123;DHT22;10719;48.130;11.630;2023-02-18T15:25:51;13.40;99.90
21123;DHT22;10719;48.130;11.630;2023-02-18T15:28:23;13.40;99.90
21123;DHT22;10719;48.130;11.630;2023-02-18T15:30:49;13.40;99.90
21123;DHT22;10719;48.130;11.630;2023-02-18T15:33:18;13.30;99.90
21123;DHT22;10719;48.130;11.630;2023-02-18T15:35:43;13.30;99.90
21123;DHT22;10719;48.130;11.630;2023-02-18T15:38:15;13.30;99.90
21123;DHT22;10719;48.130;11.630;2023-02-18T15:40:41;13.20;99.90
21123;DHT22;10719;48.130;11.630;2023-02-18T15:43:11;13.20;99.90
21123;DHT22;10719;48.130;11.630;2023-02-18T15:45:42;13.20;99.90
21123;DHT22;10719;48.130;11.630;2023-02-18T15:48:37;13.20;99.90
21123;DHT22;10719;48.130;11.630;2023-02-18T15:51:11;13.10;99.90
21123;DHT22;10719;48.130;11.630;2023-02-18T15:53:39;13.10;99.90
21123;DHT22;10719;48.130;11.630;2023-02-18T15:56:09;13.10;99.90
21123;DHT22;10719;48.130;11.630;2023-02-18T15:58:37;13.00;99.90
21123;DHT22;10719;48.130;11.630;2023-02-18T16:01:05;13.00;99.90
21123;DHT22;10719;48.130;11.630;2023-02-18T16:08:55;12.90;99.90
21123;DHT22;10719;48.130;11.630;2023-02-18T16:11:24;12.80;99.90
21123;DHT22;10719;48.130;11.630;2023-02-18T16:13:51;12.70;99.90
21123;DHT22;10719;48.130;11.630;2023-02-18T16:16:35;12.70;99.90
21123;DHT22;10719;48.130;11.630;2023-02-18T16:19:01;12.70;99.90
21123;DHT22;10719;48.130;11.630;2023-02-18T16:21:32;12.70;99.90
21123;DHT22;10719;48.130;11.630;2023-02-18T16:24:03;12.70;99.90
21123;DHT22;10719;48.130;11.630;2023-02-18T16:26:45;12.70;99.90
21123;DHT22;10719;48.130;11.630;2023-02-18T16:29:12;12.60;99.90
21123;DHT22;10719;48.130;11.630;2023-02-18T16:31:38;12.60;99.90
21123;DHT22;10719;48.130;11.630;2023-02-18T16:34:04;12.60;99.90
21123;DHT22;10719;48.130;11.630;2023-02-18T16:36:30;12.50;99.90
21123;DHT22;10719;48.130;11.630;2023-02-18T16:38:56;12.50;99.90
21123;DHT22;10719;48.130;11.630;2023-02-18T16:41:23;12.50;99.90
21123;DHT22;10719;48.130;11.630;2023-02-18T16:43:49;12.50;99.90
21123;DHT22;10719;48.130;11.630;2023-02-18T16:46:20;12.40;99.90
21123;DHT22;10719;48.130;11.630;2023-02-18T16:48:49;12.40;99.90
21123;DHT22;10719;48.130;11.630;2023-02-18T16:54:13;12.40;99.90
21123;DHT22;10719;48.130;11.630;2023-02-18T16:56:39;12.40;99.90
21123;DHT22;10719;48.130;11.630;2023-02-18T16:59:05;12.40;99.90
21123;DHT22;10719;48.130;11.630;2023-02-18T17:01:33;12.40;99.90
21123;DHT22;10719;48.130;11.630;2023-02-18T17:04:02;12.30;99.90
21123;DHT22;10719;48.130;11.630;2023-02-18T17:06:28;12.30;99.90
21123;DHT22;10719;48.130;11.630;2023-02-18T17:08:54;12.30;99.90
21123;DHT22;10719;48.130;11.630;2023-02-18T17:11:29;12.30;99.90
21123;DHT22;10719;48.130;11.630;2023-02-18T17:13:55;12.30;99.90
21123;DHT22;10719;48.130;11.630;2023-02-18T17:16:24;12.30;99.90
21123;DHT22;10719;48.130;11.630;2023-02-18T17:18:50;12.30;99.90
21123;DHT22;10719;48.130;11.630;2023-02-18T17:21:19;12.30;99.90
21123;DHT22;10719;48.130;11.630;2023-02-18T17:23:45;12.30;99.90
21123;DHT22;10719;48.130;11.630;2023-02-18T17:26:23;12.30;99.90
21123;DHT22;10719;48.130;11.630;2023-02-18T17:28:50;12.30;99.90